createdAt,value
2018-11-29T00:02:02.148Z,19.00
2018-11-29T00:04:30.295Z,19.03
2018-11-29T00:06:58.433Z,19.30
2018-11-29T00:09:26.623Z,19.57
2018-11-29T00:11:54.769Z,19.67
2018-11-29T00:14:22.691Z,18.47
2018-11-29T00:16:50.607Z,19.20
2018-11-29T00:19:18.731Z,18.47
2018-11-29T00:21:46.651Z,21.00
2018-11-29T00:24:14.774Z,19.50
2018-11-29T00:26:42.913Z,18.93
2018-11-29T00:29:11.043Z,20.07
2018-11-29T00:31:39.190Z,19.87
2018-11-29T00:34:07.332Z,21.10
2018-11-29T00:36:35.472Z,20.63
2018-11-29T00:39:03.747Z,19.70
2018-11-29T00:41:31.667Z,21.30
2018-11-29T00:43:59.856Z,19.57
2018-11-29T00:46:28.006Z,19.80
2018-11-29T00:48:55.934Z,18.63
2018-11-29T00:51:23.879Z,19.90
2018-11-29T00:53:51.839Z,19.63
2018-11-29T00:56:19.990Z,19.60
2018-11-29T00:58:48.124Z,18.13
2018-11-29T01:01:16.285Z,19.77
2018-11-29T01:03:44.436Z,18.67
2018-11-29T01:06:12.579Z,19.03
2018-11-29T01:08:40.731Z,19.63
2018-11-29T01:11:08.876Z,19.23
2018-11-29T01:13:37.047Z,19.27
2018-11-29T01:16:04.964Z,19.13
2018-11-29T01:18:32.875Z,21.50
2018-11-29T01:21:00.801Z,21.07
2018-11-29T01:23:28.735Z,19.87
2018-11-29T01:25:56.655Z,22.17
2018-11-29T01:28:24.796Z,20.13
2018-11-29T01:30:52.718Z,19.83
2018-11-29T01:33:20.849Z,18.87
2018-11-29T01:35:48.767Z,21.03
2018-11-29T01:38:16.911Z,19.40
2018-11-29T01:40:45.043Z,19.90
2018-11-29T01:43:13.215Z,19.73
2018-11-29T01:45:41.142Z,19.07
2018-11-29T01:48:09.064Z,19.77
2018-11-29T01:50:37.014Z,19.43
2018-11-29T01:53:04.968Z,20.73
2018-11-29T01:55:32.890Z,19.93
2018-11-29T01:58:01.031Z,20.03
2018-11-29T02:00:28.942Z,20.20
2018-11-29T02:02:57.138Z,19.20
2018-11-29T02:05:25.295Z,20.13
2018-11-29T02:07:53.204Z,19.57
2018-11-29T02:10:26.728Z,20.37
2018-11-29T02:12:55.366Z,19.57
2018-11-29T02:15:23.506Z,20.13
2018-11-29T02:17:51.749Z,18.70
2018-11-29T02:20:20.112Z,19.80
2018-11-29T02:22:48.367Z,19.93
2018-11-29T02:25:16.274Z,18.20
2018-11-29T02:27:44.426Z,18.20
2018-11-29T02:30:13.057Z,19.40
2018-11-29T02:32:41.191Z,19.30
2018-11-29T02:35:09.320Z,18.53
2018-11-29T02:37:37.313Z,20.03
2018-11-29T02:40:08.265Z,19.43
2018-11-29T02:42:36.184Z,18.77
2018-11-29T02:45:04.379Z,19.07
2018-11-29T02:47:32.555Z,18.97
2018-11-29T02:50:00.685Z,18.53
2018-11-29T02:52:28.820Z,19.83
2018-11-29T02:54:56.943Z,19.00
2018-11-29T02:57:25.133Z,19.23
2018-11-29T02:59:53.256Z,19.07
2018-11-29T03:02:21.384Z,20.30
2018-11-29T03:04:49.504Z,19.20
2018-11-29T03:07:17.675Z,19.30
2018-11-29T03:09:45.800Z,18.97
2018-11-29T03:12:13.719Z,18.93
2018-11-29T03:14:41.859Z,19.23
2018-11-29T03:17:09.992Z,19.87
2018-11-29T03:19:37.906Z,19.23
2018-11-29T03:22:06.333Z,19.53
2018-11-29T03:24:34.460Z,18.93
2018-11-29T03:27:02.594Z,19.47
2018-11-29T03:29:30.741Z,20.97
2018-11-29T03:31:58.912Z,21.90
2018-11-29T03:34:27.016Z,19.70
2018-11-29T03:36:55.137Z,18.83
2018-11-29T03:39:23.266Z,19.77
2018-11-29T03:41:51.429Z,19.33
2018-11-29T03:44:19.560Z,19.53
2018-11-29T03:46:47.692Z,21.03
2018-11-29T03:49:15.626Z,21.03
2018-11-29T03:51:43.567Z,20.13
2018-11-29T03:54:11.460Z,21.60
2018-11-29T03:56:39.367Z,20.33
2018-11-29T03:59:07.501Z,20.33
2018-11-29T04:01:35.640Z,21.13
2018-11-29T04:04:03.756Z,21.47
2018-11-29T04:06:31.902Z,19.67
2018-11-29T04:09:00.031Z,21.43
2018-11-29T04:11:28.165Z,19.57
2018-11-29T04:13:56.280Z,19.07
2018-11-29T04:16:24.404Z,19.67
2018-11-29T04:18:52.527Z,20.80
2018-11-29T04:21:20.659Z,20.57
2018-11-29T04:23:48.793Z,20.00
2018-11-29T04:26:16.939Z,20.80
2018-11-29T04:28:45.069Z,18.63
2018-11-29T04:31:13.251Z,19.33
2018-11-29T04:33:41.411Z,19.23
2018-11-29T04:36:09.544Z,20.30
2018-11-29T04:38:38.040Z,18.20
2018-11-29T04:41:06.372Z,17.83
2018-11-29T04:43:34.536Z,19.13
2018-11-29T04:46:08.086Z,19.80
2018-11-29T04:48:36.252Z,18.77
2018-11-29T04:51:04.421Z,18.33
2018-11-29T04:53:32.343Z,18.90
2018-11-29T04:56:00.472Z,20.23
2018-11-29T04:58:28.383Z,19.53
2018-11-29T05:00:56.511Z,19.50
2018-11-29T05:03:24.739Z,17.87
2018-11-29T05:05:52.906Z,17.23
2018-11-29T05:08:21.050Z,19.53
2018-11-29T05:10:49.200Z,19.37
2018-11-29T05:13:17.327Z,19.00
2018-11-29T05:15:45.231Z,20.60
2018-11-29T05:18:13.187Z,19.07
2018-11-29T05:20:41.128Z,20.13
2018-11-29T05:23:09.035Z,18.63
2018-11-29T05:25:37.165Z,19.57
2018-11-29T05:28:05.463Z,21.03
2018-11-29T05:30:33.612Z,21.37
2018-11-29T05:33:01.756Z,21.57
2018-11-29T05:35:29.895Z,20.57
2018-11-29T05:37:58.043Z,19.50
2018-11-29T05:40:26.191Z,21.60
2018-11-29T05:42:54.331Z,20.13
2018-11-29T05:45:22.490Z,20.73
2018-11-29T05:47:50.669Z,21.43
2018-11-29T05:50:18.823Z,17.53
2018-11-29T05:52:46.966Z,20.97
2018-11-29T05:55:14.876Z,22.20
2018-11-29T05:57:43.015Z,23.03
2018-11-29T06:00:11.632Z,21.13
2018-11-29T06:02:39.884Z,21.40
2018-11-29T06:05:09.435Z,22.60
2018-11-29T06:07:37.676Z,24.27
2018-11-29T06:10:05.823Z,23.87
2018-11-29T06:12:33.756Z,24.03
2018-11-29T06:15:01.892Z,25.63
2018-11-29T06:17:30.068Z,24.77
2018-11-29T06:19:58.228Z,21.87
2018-11-29T06:22:26.142Z,22.33
2018-11-29T06:24:54.283Z,25.73
2018-11-29T06:27:22.459Z,44.10
2018-11-29T06:29:50.615Z,24.33
2018-11-29T06:32:18.744Z,19.87
2018-11-29T06:34:47.015Z,23.03
2018-11-29T06:37:15.154Z,25.67
2018-11-29T06:39:43.336Z,41.40
2018-11-29T06:42:11.507Z,40.17
2018-11-29T06:44:39.421Z,31.20
2018-11-29T06:47:07.535Z,26.30
2018-11-29T06:49:35.683Z,36.17
2018-11-29T06:52:03.635Z,32.67
2018-11-29T06:54:31.784Z,29.83
2018-11-29T06:56:59.925Z,21.07
2018-11-29T06:59:28.048Z,21.13
2018-11-29T07:01:56.164Z,24.27
2018-11-29T07:04:24.339Z,24.23
2018-11-29T07:06:52.466Z,22.87
2018-11-29T07:09:20.688Z,22.10
2018-11-29T07:11:48.594Z,21.00
2018-11-29T07:14:16.740Z,21.17
2018-11-29T07:16:44.655Z,20.03
2018-11-29T07:19:15.025Z,20.73
2018-11-29T07:21:50.319Z,20.57
2018-11-29T07:24:18.272Z,19.43
2018-11-29T07:26:46.210Z,20.03
2018-11-29T07:29:16.931Z,23.40
2018-11-29T07:31:42.633Z,24.30
2018-11-29T07:34:10.764Z,24.43
2018-11-29T07:36:38.904Z,24.03
2018-11-29T07:39:08.847Z,24.10
2018-11-29T07:41:37.868Z,24.00
2018-11-29T07:44:07.311Z,24.63
2018-11-29T07:46:35.559Z,24.03
2018-11-29T07:49:03.695Z,25.03
2018-11-29T07:51:31.799Z,23.70
2018-11-29T07:53:59.940Z,24.80
2018-11-29T07:56:28.055Z,23.33
2018-11-29T07:58:56.208Z,23.77
2018-11-29T08:01:24.329Z,21.10
2018-11-29T08:03:52.482Z,21.03
2018-11-29T08:06:26.139Z,22.80
2018-11-29T08:08:54.280Z,20.57
2018-11-29T08:11:22.408Z,21.43
2018-11-29T08:13:50.544Z,20.83
2018-11-29T08:16:18.455Z,20.57
2018-11-29T08:18:46.371Z,21.23
2018-11-29T08:21:14.492Z,19.73
2018-11-29T08:23:42.617Z,19.50
2018-11-29T08:26:10.796Z,19.00
2018-11-29T08:28:38.720Z,18.67
2018-11-29T08:31:06.896Z,18.63
2018-11-29T08:33:35.028Z,19.53
2018-11-29T08:36:03.239Z,18.97
2018-11-29T08:38:31.395Z,19.97
2018-11-29T08:40:59.560Z,18.43
2018-11-29T08:43:27.698Z,20.07
2018-11-29T08:45:55.860Z,21.37
2018-11-29T08:48:23.998Z,19.03
2018-11-29T08:50:52.140Z,20.73
2018-11-29T08:53:20.286Z,20.77
2018-11-29T08:55:48.419Z,21.47
2018-11-29T08:58:16.580Z,20.27
2018-11-29T09:00:44.489Z,20.93
2018-11-29T09:03:12.603Z,21.53
2018-11-29T09:05:40.746Z,20.87
2018-11-29T09:08:08.663Z,21.10
2018-11-29T09:10:48.960Z,20.17
2018-11-29T09:13:17.088Z,20.40
2018-11-29T09:15:45.011Z,21.23
2018-11-29T09:18:13.140Z,20.13
2018-11-29T09:20:41.369Z,20.40
2018-11-29T09:23:09.267Z,20.43
2018-11-29T09:25:37.404Z,20.43
2018-11-29T09:28:05.927Z,19.37
2018-11-29T09:30:34.253Z,18.80
2018-11-29T09:33:02.394Z,19.17
2018-11-29T09:35:30.302Z,18.67
2018-11-29T09:37:58.436Z,19.20
2018-11-29T09:40:26.588Z,18.40
2018-11-29T09:42:54.711Z,18.20
2018-11-29T09:45:23.520Z,17.03
2018-11-29T09:47:53.728Z,17.10
2018-11-29T09:50:21.998Z,16.47
2018-11-29T09:52:50.134Z,16.87
2018-11-29T09:55:18.280Z,15.80
2018-11-29T09:57:47.352Z,15.43
2018-11-29T10:00:31.595Z,15.77
2018-11-29T10:03:06.315Z,15.30
2018-11-29T10:05:34.444Z,15.30
2018-11-29T10:08:02.571Z,14.77
2018-11-29T10:10:30.695Z,14.37
2018-11-29T10:12:58.824Z,15.10
2018-11-29T10:15:26.998Z,14.73
2018-11-29T10:17:55.113Z,15.17
2018-11-29T10:20:23.308Z,14.80
2018-11-29T10:22:51.445Z,15.70
2018-11-29T10:25:19.355Z,14.80
2018-11-29T10:27:50.017Z,15.20
2018-11-29T10:30:26.983Z,15.73
2018-11-29T10:32:55.129Z,14.73
2018-11-29T10:35:23.276Z,14.83
2018-11-29T10:37:51.409Z,16.90
2018-11-29T10:40:19.548Z,15.67
2018-11-29T10:42:47.705Z,15.60
2018-11-29T10:45:18.037Z,14.30
2018-11-29T10:47:52.347Z,12.90
2018-11-29T10:50:15.747Z,13.70
2018-11-29T10:52:43.892Z,14.43
2018-11-29T10:55:16.104Z,13.97
2018-11-29T10:57:44.241Z,13.97
2018-11-29T11:00:24.075Z,13.80
2018-11-29T11:02:58.514Z,14.37
2018-11-29T11:05:26.653Z,14.00
2018-11-29T11:07:54.840Z,14.30
2018-11-29T11:10:22.967Z,12.93
2018-11-29T11:12:51.232Z,13.80
2018-11-29T11:15:19.360Z,14.00
2018-11-29T11:17:47.479Z,14.33
2018-11-29T11:20:15.615Z,14.07
2018-11-29T11:22:43.775Z,12.57
2018-11-29T11:25:12.455Z,12.37
2018-11-29T11:27:40.577Z,13.87
2018-11-29T11:30:13.165Z,11.93
2018-11-29T11:32:41.632Z,11.93
2018-11-29T11:35:09.932Z,11.40
2018-11-29T11:37:38.065Z,10.73
2018-11-29T11:40:10.988Z,10.23
2018-11-29T11:42:39.104Z,11.10
2018-11-29T11:45:10.907Z,10.53
2018-11-29T11:47:39.032Z,10.67
2018-11-29T11:50:11.364Z,10.77
2018-11-29T11:52:39.480Z,10.40
2018-11-29T11:55:08.112Z,11.60
2018-11-29T11:57:36.236Z,10.73
2018-11-29T12:00:07.439Z,11.23
2018-11-29T12:02:35.566Z,10.77
2018-11-29T12:05:03.699Z,10.43
2018-11-29T12:07:31.820Z,9.60
2018-11-29T12:09:59.943Z,9.87
2018-11-29T12:12:28.072Z,9.47
2018-11-29T12:14:55.979Z,10.90
2018-11-29T12:17:24.169Z,9.23
2018-11-29T12:19:52.295Z,8.90
2018-11-29T12:22:20.415Z,10.17
2018-11-29T12:24:48.568Z,9.53
2018-11-29T12:27:16.471Z,9.87
2018-11-29T12:29:44.607Z,10.77
2018-11-29T12:32:12.739Z,11.33
2018-11-29T12:34:40.871Z,11.13
2018-11-29T12:37:09.084Z,11.77
2018-11-29T12:39:37.237Z,13.10
2018-11-29T12:42:05.408Z,11.80
2018-11-29T12:44:33.552Z,12.57
2018-11-29T12:47:01.677Z,13.60
2018-11-29T12:49:29.803Z,13.27
2018-11-29T12:51:57.944Z,12.67
2018-11-29T12:54:26.085Z,12.57
2018-11-29T12:56:54.220Z,12.80
2018-11-29T12:59:22.340Z,13.20
2018-11-29T13:01:50.484Z,12.47
2018-11-29T13:04:18.647Z,11.63
2018-11-29T13:06:46.783Z,11.37
2018-11-29T13:09:14.964Z,12.03
2018-11-29T13:11:43.136Z,12.33
2018-11-29T13:14:11.354Z,12.50
2018-11-29T13:16:39.448Z,12.23
2018-11-29T13:19:07.591Z,11.83
2018-11-29T13:21:35.767Z,11.83
2018-11-29T13:24:03.961Z,11.63
2018-11-29T13:26:32.070Z,11.43
2018-11-29T13:29:00.201Z,11.80
2018-11-29T13:31:28.367Z,10.83
2018-11-29T13:33:56.492Z,10.77
2018-11-29T13:36:24.656Z,10.37
2018-11-29T13:38:52.842Z,10.33
2018-11-29T13:41:20.972Z,11.20
2018-11-29T13:43:49.113Z,10.83
2018-11-29T13:46:17.249Z,11.00
2018-11-29T13:48:45.391Z,10.93
2018-11-29T13:51:13.573Z,11.50
2018-11-29T13:53:41.789Z,10.73
2018-11-29T13:56:09.956Z,10.80
2018-11-29T13:58:38.155Z,11.00
2018-11-29T14:01:06.297Z,10.00
2018-11-29T14:03:34.482Z,9.57
2018-11-29T14:06:02.612Z,10.07
2018-11-29T14:08:31.466Z,9.87
2018-11-29T14:10:59.631Z,9.67
2018-11-29T14:13:27.791Z,11.40
2018-11-29T14:15:55.921Z,9.97
2018-11-29T14:18:24.043Z,10.67
2018-11-29T14:20:52.179Z,10.27
2018-11-29T14:23:20.423Z,10.10
2018-11-29T14:25:48.616Z,10.47
2018-11-29T14:28:16.744Z,11.03
2018-11-29T14:30:44.912Z,10.80
2018-11-29T14:33:13.034Z,10.77
2018-11-29T14:35:41.159Z,11.83
2018-11-29T14:38:09.298Z,12.23
2018-11-29T14:40:37.836Z,13.07
2018-11-29T14:43:06.738Z,14.20
2018-11-29T14:45:34.870Z,13.50
2018-11-29T14:48:02.995Z,13.83
2018-11-29T14:50:35.394Z,14.33
2018-11-29T14:53:03.532Z,14.03
2018-11-29T14:55:31.672Z,14.60
2018-11-29T14:57:59.802Z,15.97
2018-11-29T15:00:27.932Z,15.47
2018-11-29T15:02:56.815Z,15.60
2018-11-29T15:05:27.142Z,15.37
2018-11-29T15:07:55.296Z,15.47
2018-11-29T15:10:23.473Z,17.60
2018-11-29T15:12:51.394Z,17.13
2018-11-29T15:15:19.511Z,15.97
2018-11-29T15:17:48.463Z,15.33
2018-11-29T15:20:35.941Z,15.40
2018-11-29T15:23:04.104Z,16.50
2018-11-29T15:25:33.131Z,14.63
2018-11-29T15:28:00.231Z,17.10
2018-11-29T15:30:28.377Z,15.87
2018-11-29T15:32:56.572Z,17.60
2018-11-29T15:35:24.470Z,15.90
2018-11-29T15:37:52.612Z,16.40
2018-11-29T15:40:20.757Z,15.70
2018-11-29T15:42:48.931Z,16.23
2018-11-29T15:45:24.042Z,16.97
2018-11-29T15:47:52.188Z,15.37
2018-11-29T15:50:20.078Z,15.00
2018-11-29T15:52:48.211Z,14.10
2018-11-29T15:55:20.423Z,14.83
2018-11-29T15:57:49.491Z,14.63
2018-11-29T16:00:22.691Z,15.43
2018-11-29T16:02:51.475Z,16.03
2018-11-29T16:05:19.559Z,14.90
2018-11-29T16:07:47.704Z,13.77
2018-11-29T16:10:19.961Z,14.63
2018-11-29T16:12:48.079Z,12.83
2018-11-29T16:15:17.012Z,14.68
2018-11-29T16:17:45.265Z,12.37
2018-11-29T16:20:17.175Z,12.60
2018-11-29T16:22:44.966Z,12.83
2018-11-29T16:25:13.156Z,11.57
2018-11-29T16:27:41.531Z,11.03
2018-11-29T16:30:15.590Z,10.43
2018-11-29T16:32:43.991Z,11.00
2018-11-29T16:35:12.226Z,11.80
2018-11-29T16:37:40.371Z,11.23
2018-11-29T16:40:08.955Z,13.70
2018-11-29T16:42:37.104Z,12.53
2018-11-29T16:45:06.934Z,12.67
2018-11-29T16:47:34.842Z,12.67
2018-11-29T16:50:02.975Z,13.10
2018-11-29T16:52:30.886Z,11.57
2018-11-29T16:54:59.015Z,10.93
2018-11-29T16:57:26.925Z,12.87
2018-11-29T16:59:55.047Z,12.40
2018-11-29T17:02:23.224Z,11.90
2018-11-29T17:04:51.356Z,12.10
2018-11-29T17:07:19.496Z,12.90
2018-11-29T17:12:22.367Z,12.97
2018-11-29T17:14:51.521Z,15.27
2018-11-29T17:17:19.664Z,13.67
2018-11-29T17:19:47.571Z,14.23
2018-11-29T17:22:15.820Z,17.27
2018-11-29T17:24:43.935Z,15.00
2018-11-29T17:27:12.067Z,16.53
2018-11-29T17:29:40.240Z,16.93
2018-11-29T17:32:08.386Z,16.63
2018-11-29T17:34:36.529Z,15.27
2018-11-29T17:37:04.692Z,14.47
2018-11-29T17:39:32.832Z,15.63
2018-11-29T17:42:00.770Z,14.50
2018-11-29T17:44:28.680Z,14.87
2018-11-29T17:46:56.595Z,14.80
2018-11-29T17:49:24.708Z,14.83
2018-11-29T17:51:53.799Z,13.43
2018-11-29T17:54:20.778Z,14.03
2018-11-29T17:56:48.927Z,14.57
2018-11-29T17:59:17.050Z,14.90
2018-11-29T18:01:44.967Z,15.40
2018-11-29T18:04:12.883Z,15.10
2018-11-29T18:06:41.011Z,15.43
2018-11-29T18:09:10.171Z,15.63
2018-11-29T18:11:38.868Z,15.50
2018-11-29T18:14:07.144Z,14.60
2018-11-29T18:16:35.060Z,16.77
2018-11-29T18:19:03.039Z,17.27
2018-11-29T18:21:30.954Z,15.23
2018-11-29T18:23:58.875Z,14.60
2018-11-29T18:26:27.012Z,14.83
2018-11-29T18:28:55.171Z,14.77
2018-11-29T18:31:23.079Z,14.07
2018-11-29T18:33:57.763Z,14.43
2018-11-29T18:36:25.904Z,13.37
2018-11-29T18:38:54.108Z,13.53
2018-11-29T18:41:22.272Z,15.10
2018-11-29T18:43:50.465Z,14.97
2018-11-29T18:46:18.615Z,13.27
2018-11-29T18:48:46.762Z,14.87
2018-11-29T18:51:14.663Z,13.77
2018-11-29T18:53:42.791Z,13.50
2018-11-29T18:56:10.949Z,14.63
2018-11-29T18:58:38.856Z,14.57
2018-11-29T19:01:07.342Z,14.27
2018-11-29T19:03:35.563Z,12.33
2018-11-29T19:06:03.839Z,12.47
2018-11-29T19:08:31.759Z,14.30
2018-11-29T19:10:59.870Z,14.43
2018-11-29T19:13:28.022Z,14.27
2018-11-29T19:15:56.150Z,14.50
2018-11-29T19:18:24.300Z,14.60
2018-11-29T19:20:52.586Z,13.27
2018-11-29T19:23:20.762Z,13.73
2018-11-29T19:25:48.988Z,13.43
2018-11-29T19:28:17.154Z,13.87
2018-11-29T19:30:45.103Z,14.90
2018-11-29T19:33:17.779Z,14.67
2018-11-29T19:35:47.293Z,13.97
2018-11-29T19:38:15.434Z,14.73
2018-11-29T19:40:43.660Z,15.27
2018-11-29T19:43:11.730Z,15.23
2018-11-29T19:45:39.866Z,14.60
2018-11-29T19:48:08.150Z,14.50
2018-11-29T19:50:36.331Z,14.77
2018-11-29T19:53:06.216Z,14.17
2018-11-29T19:55:34.603Z,14.57
2018-11-29T19:58:02.732Z,14.70
2018-11-29T20:00:30.880Z,13.43
2018-11-29T20:02:59.081Z,14.63
2018-11-29T20:05:27.276Z,14.50
2018-11-29T20:07:55.477Z,15.20
2018-11-29T20:10:23.658Z,15.10
2018-11-29T20:12:59.316Z,14.77
2018-11-29T20:15:27.561Z,13.73
2018-11-29T20:17:55.663Z,15.73
2018-11-29T20:20:23.911Z,14.57
2018-11-29T20:22:52.065Z,13.90
2018-11-29T20:25:21.500Z,14.37
2018-11-29T20:27:49.414Z,14.87
2018-11-29T20:30:18.690Z,14.70
2018-11-29T20:32:47.764Z,14.13
2018-11-29T20:35:16.275Z,14.13
2018-11-29T20:37:44.211Z,14.60
2018-11-29T20:40:20.802Z,14.47
2018-11-29T20:42:49.151Z,14.87
2018-11-29T20:45:18.856Z,14.33
2018-11-29T20:47:46.775Z,15.67
2018-11-29T20:50:15.400Z,14.90
2018-11-29T20:52:43.612Z,14.23
2018-11-29T20:55:13.349Z,14.97
2018-11-29T20:57:41.259Z,15.73
2018-11-29T21:00:11.529Z,14.97
2018-11-29T21:02:39.735Z,14.77
2018-11-29T21:05:10.321Z,14.40
2018-11-29T21:07:38.551Z,14.70
2018-11-29T21:10:13.768Z,14.07
2018-11-29T21:12:42.084Z,14.27
2018-11-29T21:15:10.263Z,14.40
2018-11-29T21:17:38.205Z,15.33
2018-11-29T21:20:10.039Z,15.37
2018-11-29T21:22:38.239Z,15.93
2018-11-29T21:25:09.356Z,14.83
2018-11-29T21:27:37.350Z,14.33
2018-11-29T21:30:11.723Z,15.23
2018-11-29T21:32:39.848Z,15.87
2018-11-29T21:35:09.043Z,14.73
2018-11-29T21:37:36.983Z,15.23
2018-11-29T21:40:11.237Z,14.73
2018-11-29T21:42:39.351Z,14.63
2018-11-29T21:45:07.483Z,14.97
2018-11-29T21:47:35.486Z,14.37
2018-11-29T21:50:03.648Z,15.07
2018-11-29T21:52:31.561Z,14.27
2018-11-29T21:54:59.478Z,14.90
2018-11-29T21:57:27.396Z,15.47
2018-11-29T21:59:55.519Z,14.87
2018-11-29T22:02:23.422Z,14.80
2018-11-29T22:04:51.588Z,14.00
2018-11-29T22:07:19.724Z,15.20
2018-11-29T22:09:47.957Z,15.37
2018-11-29T22:12:16.067Z,15.97
2018-11-29T22:14:44.182Z,14.73
2018-11-29T22:17:12.328Z,15.13
2018-11-29T22:19:40.502Z,15.00
2018-11-29T22:22:08.641Z,14.53
2018-11-29T22:24:36.788Z,15.07
2018-11-29T22:27:04.937Z,13.93
2018-11-29T22:29:33.153Z,14.87
2018-11-29T22:32:01.296Z,14.53
2018-11-29T22:34:29.420Z,15.23
2018-11-29T22:36:57.539Z,15.83
2018-11-29T22:39:25.685Z,14.90
2018-11-29T22:41:53.783Z,14.87
2018-11-29T22:44:21.904Z,15.60
2018-11-29T22:46:50.026Z,16.73
2018-11-29T22:49:17.940Z,16.13
2018-11-29T22:51:46.077Z,16.03
2018-11-29T22:54:13.978Z,14.90
2018-11-29T22:56:42.112Z,14.87
2018-11-29T22:59:10.236Z,16.47
2018-11-29T23:01:38.378Z,16.50
2018-11-29T23:04:06.608Z,18.07
2018-11-29T23:06:34.523Z,18.50
2018-11-29T23:09:02.676Z,16.60
2018-11-29T23:11:30.816Z,17.10
2018-11-29T23:13:58.959Z,16.90
2018-11-29T23:16:26.881Z,17.30
2018-11-29T23:18:54.850Z,17.70
2018-11-29T23:21:22.777Z,16.83
2018-11-29T23:23:50.922Z,17.10
2018-11-29T23:26:19.079Z,16.13
2018-11-29T23:28:47.224Z,16.17
2018-11-29T23:31:15.413Z,15.33
2018-11-29T23:33:43.654Z,16.70
2018-11-29T23:36:11.816Z,15.40
2018-11-29T23:38:39.943Z,15.10
2018-11-29T23:41:08.080Z,13.77
2018-11-29T23:43:36.230Z,15.17
2018-11-29T23:46:04.468Z,14.50
2018-11-29T23:48:33.219Z,15.60
2018-11-29T23:51:01.199Z,15.43
2018-11-29T23:53:29.108Z,17.30
2018-11-29T23:55:57.270Z,15.93
2018-11-29T23:58:25.409Z,14.77
